Time;durP1;ratioP1;P1;durP2;ratioP2;P2;SDS_P1;SDS_P2;PMS_P1;PMS_P2;Temp;Humidity;BMP_temperature;BMP_pressure;BME280_temperature;BME280_humidity;BME280_pressure;Samples;Min_cycle;Max_cycle;Signal;HPM_P1;HPM_P2
2022/05/14 00:00:18;;;;;;;8.13;1.87;;;;;;;-145.18;100.00;46609.59;5035154;28;20271;-86
2022/05/14 00:02:44;;;;;;;8.30;1.70;;;;;;;-145.18;100.00;46592.03;5036417;28;20291;-86
2022/05/14 00:05:10;;;;;;;7.80;1.77;;;;;;;-145.18;100.00;46595.94;5038388;28;20290;-85
2022/05/14 00:07:36;;;;;;;11.40;2.10;;;;;;;-145.18;100.00;46599.84;5037977;28;20096;-85
2022/05/14 00:10:02;;;;;;;8.93;2.00;;;;;;;-145.18;100.00;46597.88;5030930;28;20562;-85
2022/05/14 00:15:11;;;;;;;9.57;2.40;;;;;;;-145.18;100.00;46601.78;5018918;28;20289;-85
2022/05/14 00:17:37;;;;;;;10.67;2.00;;;;;;;-145.18;100.00;46595.94;5017253;28;20354;-85
2022/05/14 00:20:02;;;;;;;10.77;2.63;;;;;;;-145.18;100.00;46609.59;5016230;28;20129;-85
2022/05/14 00:22:28;;;;;;;6.43;1.50;;;;;;;-145.18;100.00;46599.84;5017580;28;20033;-85
2022/05/14 00:24:53;;;;;;;7.73;2.17;;;;;;;-145.18;100.00;46595.94;5014753;28;20046;-85
2022/05/14 00:27:18;;;;;;;5.67;1.80;;;;;;;-145.18;100.00;46613.50;5015008;28;20026;-85
2022/05/14 00:29:44;;;;;;;12.70;1.70;;;;;;;-145.18;100.00;46595.94;5014065;28;20022;-85
2022/05/14 00:32:09;;;;;;;12.23;2.17;;;;;;;-145.18;100.00;46603.75;5030681;28;20440;-85
2022/05/14 00:34:34;;;;;;;7.90;2.50;;;;;;;-145.18;100.00;46593.97;5033750;28;20034;-85
2022/05/14 00:37:00;;;;;;;10.60;2.13;;;;;;;-145.18;100.00;46595.94;5029527;28;20030;-86
2022/05/14 00:39:26;;;;;;;6.90;2.37;;;;;;;-145.18;100.00;46592.03;5017736;28;20041;-85
2022/05/14 00:41:51;;;;;;;12.47;2.20;;;;;;;-145.18;100.00;46592.03;5013379;28;20143;-85
2022/05/14 00:44:17;;;;;;;13.50;3.03;;;;;;;-145.18;100.00;46592.03;5015373;28;20030;-85
2022/05/14 00:46:46;;;;;;;13.47;2.33;;;;;;;-145.18;100.00;46582.25;5017380;28;20045;-85
2022/05/14 00:49:12;;;;;;;14.17;2.30;;;;;;;-145.18;100.00;46590.06;5017989;28;20878;-84
2022/05/14 00:51:41;;;;;;;9.40;2.23;;;;;;;-145.18;100.00;46588.13;5017855;28;20790;-84
2022/05/14 00:54:17;;;;;;;8.73;1.93;;;;;;;-145.18;100.00;46584.22;5018893;28;20272;-83
2022/05/14 00:56:46;;;;;;;;;;;;;;;-145.18;100.00;46588.13;5016725;28;20302;-84
2022/05/14 00:59:15;;;;;;;12.97;3.00;;;;;;;-145.18;100.00;46584.22;5015111;28;19961;-83
2022/05/14 01:01:42;;;;;;;12.33;2.40;;;;;;;-145.18;100.00;46566.63;5015578;28;20329;-84
2022/05/14 01:04:09;;;;;;;12.30;2.40;;;;;;;-145.18;100.00;46568.59;5012869;28;20625;-84
2022/05/14 01:06:36;;;;;;;8.07;2.20;;;;;;;-145.18;100.00;46572.50;5012389;28;20270;-85
2022/05/14 01:09:04;;;;;;;10.03;2.37;;;;;;;-145.18;100.00;46578.34;5011731;28;20338;-85
2022/05/14 01:11:33;;;;;;;8.03;2.43;;;;;;;-145.18;100.00;46572.50;5012459;28;20652;-84
2022/05/14 01:13:59;;;;;;;9.93;2.70;;;;;;;-145.18;100.00;46568.59;5013879;28;20267;-85
2022/05/14 01:16:24;;;;;;;11.90;2.57;;;;;;;-145.18;100.00;46568.59;5012790;28;20400;-84
2022/05/14 01:18:49;;;;;;;11.13;2.03;;;;;;;-145.18;100.00;46564.69;5028743;28;20029;-85
2022/05/14 01:21:21;;;;;;;10.57;2.53;;;;;;;-145.18;100.00;46564.69;5019605;28;20038;-85
2022/05/14 01:26:52;;;;;;;13.37;3.10;;;;;;;-145.18;100.00;46562.72;5013935;28;20636;-85
2022/05/14 01:29:20;;;;;;;9.90;2.23;;;;;;;-145.18;100.00;46558.81;5013324;28;20264;-85
2022/05/14 01:31:47;;;;;;;11.20;3.30;;;;;;;-145.18;100.00;46558.81;5013406;28;20612;-85
2022/05/14 01:34:25;;;;;;;10.07;2.93;;;;;;;-145.18;100.00;46560.78;5014820;28;20789;-84
2022/05/14 01:36:51;;;;;;;15.10;2.73;;;;;;;-145.18;100.00;46558.81;5029719;28;20329;-85
2022/05/14 01:39:16;;;;;;;7.40;2.70;;;;;;;-145.18;100.00;46562.72;5033375;28;20286;-85
2022/05/14 01:41:42;;;;;;;14.20;3.07;;;;;;;-145.18;100.00;46558.81;5020114;28;20327;-84
2022/05/14 01:44:07;;;;;;;13.33;2.93;;;;;;;-145.18;100.00;46558.81;5014267;28;20041;-84
2022/05/14 01:46:34;;;;;;;7.87;3.03;;;;;;;-145.18;100.00;46556.88;5015629;28;20461;-84
2022/05/14 01:48:59;;;;;;;11.37;3.60;;;;;;;-145.18;100.00;46558.81;5015813;28;20528;-84
2022/05/14 01:51:25;;;;;;;14.27;3.43;;;;;;;-145.18;100.00;46549.06;5015410;28;20282;-85
2022/05/14 01:53:51;;;;;;;13.00;3.27;;;;;;;-145.18;100.00;46554.91;5013137;28;20033;-84
2022/05/14 01:56:17;;;;;;;9.03;3.03;;;;;;;-145.18;100.00;46560.78;5013532;28;20034;-85
2022/05/14 01:58:43;;;;;;;9.10;3.03;;;;;;;-145.18;100.00;46558.81;5012958;28;20819;-84
2022/05/14 02:03:47;;;;;;;12.48;3.75;;;;;;;-145.18;100.00;46556.88;5038836;22;20295;-84
2022/05/14 02:06:13;;;;;;;10.03;3.13;;;;;;;-145.18;100.00;46564.69;5036385;28;20494;-84
2022/05/14 02:08:39;;;;;;;8.53;3.10;;;;;;;-145.18;100.00;46560.78;5033597;28;20267;-84
2022/05/14 02:11:05;;;;;;;9.10;3.10;;;;;;;-145.18;100.00;46568.59;5033663;28;20270;-84
2022/05/14 02:13:31;;;;;;;11.23;3.40;;;;;;;-145.18;100.00;46566.63;5021791;28;20045;-84
2022/05/14 02:15:57;;;;;;;14.30;3.50;;;;;;;-145.18;100.00;46568.59;5033899;28;20781;-84
2022/05/14 02:18:23;;;;;;;12.37;3.70;;;;;;;-145.18;100.00;46572.50;5032902;28;20437;-85
2022/05/14 02:20:49;;;;;;;15.53;4.50;;;;;;;-145.18;100.00;46576.41;5025256;28;20326;-85
2022/05/14 02:23:14;;;;;;;22.27;3.93;;;;;;;-145.18;100.00;46574.44;5014029;28;20037;-84
2022/05/14 02:25:41;;;;;;;14.77;4.20;;;;;;;-145.18;100.00;46578.34;5010728;28;20030;-83
2022/05/14 02:28:06;;;;;;;19.00;4.07;;;;;;;-145.18;100.00;46582.25;5010248;28;20045;-83
2022/05/14 02:30:31;;;;;;;11.70;5.03;;;;;;;-145.18;100.00;46586.16;5010558;28;20291;-83
2022/05/14 02:32:57;;;;;;;14.20;4.13;;;;;;;-145.18;100.00;46627.19;5016635;28;20034;-83
2022/05/14 02:35:23;;;;;;;10.87;3.57;;;;;;;-145.18;100.00;46640.88;5019844;28;20093;-82
2022/05/14 02:37:48;;;;;;;14.47;5.97;;;;;;;-145.18;100.00;46660.41;5019090;28;20092;-84
2022/05/14 02:40:14;;;;;;;17.23;5.00;;;;;;;-145.18;100.00;46640.88;5015391;28;20393;-83
2022/05/14 02:42:39;;;;;;;17.17;4.83;;;;;;;-145.18;100.00;46656.50;5018915;28;20466;-83
2022/05/14 02:45:06;;;;;;;16.10;4.53;;;;;;;-145.18;100.00;46660.41;5018238;28;20066;-82
2022/05/14 02:47:31;;;;;;;19.40;5.27;;;;;;;-145.18;100.00;46666.25;5037011;28;20248;-82
2022/05/14 02:49:57;;;;;;;11.13;5.03;;;;;;;-145.18;100.00;46672.13;5034606;28;20267;-84
2022/05/14 02:52:23;;;;;;;17.60;5.10;;;;;;;-145.18;100.00;46672.13;5035190;28;20034;-83
2022/05/14 02:54:49;;;;;;;16.93;5.23;;;;;;;-145.18;100.00;46674.06;5037463;28;20037;-83
2022/05/14 02:57:15;;;;;;;16.30;5.67;;;;;;;-145.18;100.00;46677.97;5028286;28;20275;-82
2022/05/14 02:59:41;;;;;;;15.37;5.17;;;;;;;-145.18;100.00;46677.97;5019170;28;20283;-82
2022/05/14 03:02:07;;;;;;;17.77;5.37;;;;;;;-145.18;100.00;46677.97;5015216;28;20363;-83
2022/05/14 03:04:37;;;;;;;14.90;5.33;;;;;;;-145.18;100.00;46679.94;5012520;28;20509;-81
2022/05/14 03:07:04;;;;;;;13.77;5.50;;;;;;;-145.18;100.00;46683.84;5013447;28;20318;-82
2022/05/14 03:09:30;;;;;;;18.23;5.47;;;;;;;-145.18;100.00;46681.88;5012337;28;20774;-84
2022/05/14 03:11:55;;;;;;;14.93;5.63;;;;;;;-145.18;100.00;46681.88;5014427;28;20271;-82
2022/05/14 03:14:22;;;;;;;18.27;5.40;;;;;;;-145.18;100.00;46677.97;5015121;28;20038;-82
2022/05/14 03:16:47;;;;;;;17.97;5.50;;;;;;;-145.18;100.00;46681.88;5015454;28;20069;-82
2022/05/14 03:19:14;;;;;;;14.97;5.57;;;;;;;-145.18;100.00;46679.94;5015310;28;20271;-82
2022/05/14 03:21:40;;;;;;;19.13;6.07;;;;;;;-145.18;100.00;46679.94;5013493;28;20034;-84
2022/05/14 03:24:07;;;;;;;15.83;5.77;;;;;;;-145.18;100.00;46676.03;5012210;28;20275;-83
2022/05/14 03:26:32;;;;;;;17.03;5.90;;;;;;;-145.18;100.00;46681.88;4994506;28;20817;-83
2022/05/14 03:28:57;;;;;;;12.33;5.90;;;;;;;-145.18;100.00;46679.94;5012189;28;20362;-83
2022/05/14 03:31:23;;;;;;;15.40;5.27;;;;;;;-145.18;100.00;46676.03;5012433;28;20041;-84
2022/05/14 03:33:49;;;;;;;14.37;6.73;;;;;;;-145.18;100.00;46677.97;5012124;28;20358;-83
2022/05/14 03:36:14;;;;;;;23.60;6.27;;;;;;;-145.18;100.00;46677.97;5018477;28;20124;-84
2022/05/14 03:38:40;;;;;;;17.97;5.97;;;;;;;-145.18;100.00;46677.97;5016839;28;20038;-84
2022/05/14 03:41:06;;;;;;;16.77;5.83;;;;;;;-145.18;100.00;46672.13;5020233;28;20463;-84
2022/05/14 03:43:31;;;;;;;16.90;5.97;;;;;;;-145.18;100.00;46676.03;5015916;28;20121;-84
2022/05/14 03:45:58;;;;;;;12.63;6.03;;;;;;;-145.18;100.00;46674.06;4999023;28;20029;-83
2022/05/14 03:48:24;;;;;;;19.27;6.47;;;;;;;-145.18;100.00;46672.13;5021472;28;20049;-83
2022/05/14 03:50:50;;;;;;;17.67;6.40;;;;;;;-145.18;100.00;46674.06;5038330;28;20302;-82
2022/05/14 03:53:15;;;;;;;16.17;5.33;;;;;;;-145.18;100.00;46672.13;5035299;28;20358;-83
2022/05/14 03:55:41;;;;;;;17.30;6.53;;;;;;;-145.18;100.00;46676.03;5034743;28;20037;-83
2022/05/14 03:58:06;;;;;;;15.23;6.53;;;;;;;-145.18;100.00;46676.03;5036479;28;20034;-83
2022/05/14 04:00:31;;;;;;;15.90;6.17;;;;;;;-145.18;100.00;46677.97;5035991;28;20048;-83
2022/05/14 04:02:57;;;;;;;18.37;7.50;;;;;;;-145.18;100.00;46668.22;5030940;28;20045;-83
2022/05/14 04:05:22;;;;;;;18.27;6.23;;;;;;;-145.18;100.00;46676.03;5013111;28;20041;-83
2022/05/14 04:07:48;;;;;;;19.30;6.70;;;;;;;-145.18;100.00;46668.22;5012387;28;20077;-83
2022/05/14 04:10:16;;;;;;;15.43;6.20;;;;;;;-145.18;100.00;46664.31;4996248;28;20042;-83
2022/05/14 04:12:41;;;;;;;18.93;8.33;;;;;;;-145.18;100.00;46662.34;5014040;28;20033;-83
2022/05/14 04:15:08;;;;;;;24.03;8.33;;;;;;;-145.18;100.00;46670.16;5016183;28;20318;-84
2022/05/14 04:17:33;;;;;;;16.43;7.27;;;;;;;-145.18;100.00;46662.34;4996420;28;20042;-83
2022/05/14 04:19:59;;;;;;;18.30;7.67;;;;;;;-145.18;100.00;46662.34;5015562;28;20748;-84
2022/05/14 04:22:24;;;;;;;18.47;7.10;;;;;;;-145.18;100.00;46664.31;5012960;28;20041;-82
2022/05/14 04:24:49;;;;;;;23.37;8.63;;;;;;;-145.18;100.00;46664.31;5040335;28;20037;-82
2022/05/14 04:27:15;;;;;;;22.10;7.80;;;;;;;-145.18;100.00;46662.34;5030588;28;20033;-82
2022/05/14 04:29:40;;;;;;;19.73;8.03;;;;;;;-145.18;100.00;46660.41;5032339;28;20034;-84
2022/05/14 04:32:06;;;;;;;19.40;8.83;;;;;;;-145.18;100.00;46660.41;5032279;28;20033;-83
2022/05/14 04:34:32;;;;;;;17.30;8.20;;;;;;;-145.18;100.00;46664.31;5032027;28;20041;-81
2022/05/14 04:36:57;;;;;;;17.70;7.30;;;;;;;-145.18;100.00;46664.31;5031800;28;20628;-82
2022/05/14 04:39:31;;;;;;;18.83;7.90;;;;;;;-145.18;100.00;46660.41;5007399;28;20041;-81
2022/05/14 04:42:01;;;;;;;21.37;8.17;;;;;;;-145.18;100.00;46658.44;5012225;28;20123;-81
2022/05/14 04:44:28;;;;;;;22.77;8.80;;;;;;;-145.18;100.00;46656.50;5011614;28;20279;-83
2022/05/14 04:46:54;;;;;;;16.87;8.97;;;;;;;-145.18;100.00;46652.59;5012786;28;20341;-84
2022/05/14 04:49:19;;;;;;;22.77;9.00;;;;;;;-145.18;100.00;46654.53;5001227;28;20279;-82
2022/05/14 04:51:44;;;;;;;22.10;9.30;;;;;;;-145.18;100.00;46656.50;5031555;28;20029;-81
2022/05/14 04:54:11;;;;;;;18.33;8.23;;;;;;;-145.18;100.00;46652.59;5032960;28;20049;-83
2022/05/14 04:56:36;;;;;;;21.83;9.33;;;;;;;-145.18;100.00;46656.50;5032266;28;20140;-83
2022/05/14 04:59:02;;;;;;;24.47;9.93;;;;;;;-145.18;100.00;46658.44;5030402;28;20369;-83
2022/05/14 05:01:27;;;;;;;24.27;9.13;;;;;;;-145.18;100.00;46658.44;5032408;28;20100;-84
2022/05/14 05:03:52;;;;;;;25.53;9.23;;;;;;;-145.18;100.00;46656.50;5031138;28;20505;-83
2022/05/14 05:06:18;;;;;;;22.37;9.63;;;;;;;-145.18;100.00;46656.50;5031916;28;20056;-83
2022/05/14 05:08:44;;;;;;;24.83;9.50;;;;;;;-145.18;100.00;46654.53;5031205;28;20025;-83
2022/05/14 05:11:10;;;;;;;28.57;10.90;;;;;;;-145.18;100.00;46658.44;5031534;28;20071;-82
2022/05/14 05:13:35;;;;;;;16.00;9.50;;;;;;;-145.18;100.00;46652.59;5031455;28;20458;-82
2022/05/14 05:16:01;;;;;;;19.13;9.83;;;;;;;-145.18;100.00;46652.59;5031480;28;20086;-83
2022/05/14 05:18:28;;;;;;;20.67;10.20;;;;;;;-145.18;100.00;46654.53;5031465;28;20548;-83
2022/05/14 05:20:55;;;;;;;25.53;12.00;;;;;;;-145.18;100.00;46656.50;5031303;28;20033;-83
2022/05/14 05:23:22;;;;;;;23.17;10.30;;;;;;;-145.18;100.00;46658.44;5031208;28;20266;-83
2022/05/14 05:25:49;;;;;;;24.77;10.77;;;;;;;-145.18;100.00;46652.59;5031331;28;20302;-83
2022/05/14 05:28:15;;;;;;;26.57;10.67;;;;;;;-145.18;100.00;46656.50;5029782;28;20279;-83
2022/05/14 05:30:40;;;;;;;24.13;10.93;;;;;;;-145.18;100.00;46652.59;5031030;28;20285;-83
2022/05/14 05:33:18;;;;;;;34.27;11.73;;;;;;;-145.18;100.00;46652.59;5030324;28;20421;-82
2022/05/14 05:35:44;;;;;;;29.73;11.57;;;;;;;-145.18;100.00;46650.63;5030589;28;20064;-82
2022/05/14 05:38:10;;;;;;;22.50;10.67;;;;;;;-145.18;100.00;46650.63;5030160;28;20746;-83
2022/05/14 05:40:36;;;;;;;25.23;10.80;;;;;;;-145.18;100.00;46654.53;5029696;28;20549;-83
2022/05/14 05:43:05;;;;;;;22.80;11.37;;;;;;;-145.18;100.00;46654.53;5029297;28;20713;-83
2022/05/14 05:45:31;;;;;;;25.07;11.70;;;;;;;-145.18;100.00;46654.53;5028944;28;20341;-83
2022/05/14 05:47:58;;;;;;;26.07;11.37;;;;;;;-145.18;100.00;46654.53;5010952;28;20770;-83
2022/05/14 05:50:24;;;;;;;32.83;13.70;;;;;;;-145.18;100.00;46660.41;5012216;28;20758;-83
2022/05/14 05:52:51;;;;;;;32.30;12.87;;;;;;;-145.18;100.00;46648.69;5029891;28;20357;-83
2022/05/14 05:58:00;;;;;;;29.60;12.53;;;;;;;-145.18;100.00;46648.69;5015371;28;20292;-83
2022/05/14 06:00:28;;;;;;;29.77;11.80;;;;;;;-145.18;100.00;46652.59;5013308;28;20267;-83
2022/05/14 06:02:55;;;;;;;27.17;13.57;;;;;;;-145.18;100.00;46652.59;5029913;28;20136;-82
2022/05/14 06:05:20;;;;;;;30.50;12.53;;;;;;;-145.18;100.00;46652.59;5030939;28;20270;-83
2022/05/14 06:07:46;;;;;;;31.90;12.83;;;;;;;-145.18;100.00;46650.63;5029821;28;20324;-82
2022/05/14 06:10:18;;;;;;;31.47;13.67;;;;;;;-145.18;100.00;46648.69;5030392;28;20485;-82
2022/05/14 06:12:44;;;;;;;29.93;13.77;;;;;;;-145.18;100.00;46650.63;5028336;28;20029;-82
2022/05/14 06:15:13;;;;;;;32.53;13.23;;;;;;;-145.18;100.00;46646.72;5030376;28;20287;-83
2022/05/14 06:17:39;;;;;;;32.73;13.33;;;;;;;-145.18;100.00;46648.69;5029880;28;20060;-82
2022/05/14 06:20:07;;;;;;;29.87;13.30;;;;;;;-145.18;100.00;46646.72;5029349;28;20275;-82
2022/05/14 06:22:33;;;;;;;33.90;14.17;;;;;;;-145.18;100.00;46644.78;5028860;28;20282;-82
2022/05/14 06:24:58;;;;;;;29.43;13.27;;;;;;;-145.18;100.00;46650.63;5029738;28;20278;-82
2022/05/14 06:27:24;;;;;;;32.50;14.20;;;;;;;-145.18;100.00;46648.69;5030216;28;20069;-82
2022/05/14 06:29:49;;;;;;;27.70;13.53;;;;;;;-145.18;100.00;46644.78;5029320;28;20056;-82
2022/05/14 06:32:15;;;;;;;32.67;14.10;;;;;;;-145.18;100.00;46648.69;5030319;28;20036;-82
2022/05/14 06:34:40;;;;;;;37.83;15.27;;;;;;;-145.18;100.00;46648.69;5028816;28;20037;-82
2022/05/14 06:37:05;;;;;;;34.93;15.20;;;;;;;-145.18;100.00;46642.81;5029885;28;20033;-82
2022/05/14 06:39:31;;;;;;;33.03;15.77;;;;;;;-145.18;100.00;46652.59;5029769;28;20557;-82
2022/05/14 06:41:58;;;;;;;35.60;13.93;;;;;;;-145.18;100.00;46652.59;5029654;28;20494;-82
2022/05/14 06:44:23;;;;;;;30.67;13.80;;;;;;;-145.18;100.00;46652.59;5029347;28;20029;-81
2022/05/14 06:46:48;;;;;;;34.73;15.57;;;;;;;-145.18;100.00;46652.59;5019790;28;20585;-82
2022/05/14 06:49:14;;;;;;;37.60;14.97;;;;;;;-145.18;100.00;46646.72;5019394;28;20036;-82
2022/05/14 06:51:40;;;;;;;32.30;14.20;;;;;;;-145.18;100.00;46648.69;5029508;28;20025;-82
2022/05/14 06:54:08;;;;;;;30.63;13.67;;;;;;;-145.18;100.00;46650.63;5027878;28;20440;-81
2022/05/14 06:56:39;;;;;;;37.03;14.07;;;;;;;-145.18;100.00;46654.53;5029531;28;20398;-81
2022/05/14 06:59:05;;;;;;;25.97;11.70;;;;;;;-145.18;100.00;46648.69;5028991;28;20026;-80
2022/05/14 07:01:30;;;;;;;29.30;13.30;;;;;;;-145.18;100.00;46656.50;5028620;28;20497;-81
2022/05/14 07:06:44;;;;;;;38.80;13.57;;;;;;;-145.18;100.00;46650.63;5029766;28;20089;-81
2022/05/14 07:09:26;;;;;;;35.93;13.47;;;;;;;-145.18;100.00;46648.69;5029424;28;20034;-81
2022/05/14 07:11:56;;;;;;;31.73;12.77;;;;;;;-145.18;100.00;46648.69;5029432;28;20563;-80
2022/05/14 07:14:22;;;;;;;33.93;12.90;;;;;;;-145.18;100.00;46638.91;5029129;28;20025;-81
2022/05/14 07:16:49;;;;;;;26.23;12.60;;;;;;;-145.18;100.00;46640.88;5029660;28;20037;-80
2022/05/14 07:19:14;;;;;;;31.27;12.33;;;;;;;-145.18;100.00;46638.91;5027592;28;20033;-81
2022/05/14 07:21:43;;;;;;;37.30;12.50;;;;;;;-145.18;100.00;46623.28;5029236;28;20516;-81
2022/05/14 07:24:16;;;;;;;32.23;13.30;;;;;;;-145.18;100.00;46621.31;5029494;28;20061;-81
2022/05/14 07:26:42;;;;;;;32.57;11.53;;;;;;;-145.18;100.00;46582.25;5033510;28;20033;-81
2022/05/14 07:29:10;;;;;;;31.80;12.70;;;;;;;-145.18;100.00;46578.34;5032732;28;20049;-80
2022/05/14 07:31:36;;;;;;;33.03;12.60;;;;;;;-145.18;100.00;46570.53;5032383;28;20444;-81
2022/05/14 07:34:03;;;;;;;30.67;11.87;;;;;;;-145.18;100.00;46558.81;5032779;28;20099;-80
2022/05/14 07:36:33;;;;;;;23.00;10.63;;;;;;;-145.18;100.00;46556.88;5031422;28;20038;-80
2022/05/14 07:39:03;;;;;;;32.63;12.53;;;;;;;-145.18;100.00;46537.34;5032538;28;20045;-80
2022/05/14 07:41:29;;;;;;;27.67;12.03;;;;;;;-145.18;100.00;46527.56;5033171;28;20031;-79
2022/05/14 07:43:58;;;;;;;32.07;11.70;;;;;;;-145.18;100.00;46547.09;5032156;28;20029;-80
2022/05/14 07:46:27;;;;;;;27.30;11.90;;;;;;;-145.18;100.00;46527.56;5031998;28;20052;-80
2022/05/14 07:48:56;;;;;;;24.77;10.87;;;;;;;-145.18;100.00;46523.66;5031963;28;20120;-80
2022/05/14 07:51:22;;;;;;;28.00;12.27;;;;;;;-145.18;100.00;46531.47;5033154;28;20242;-82
2022/05/14 07:53:47;;;;;;;32.50;11.90;;;;;;;-145.18;100.00;46529.53;5032167;28;20045;-80
2022/05/14 07:56:13;;;;;;;33.67;11.17;;;;;;;-145.18;100.00;46525.63;5031607;28;20120;-80
2022/05/14 07:58:40;;;;;;;29.77;13.23;;;;;;;-145.18;100.00;46529.53;5032276;28;20061;-79
2022/05/14 08:01:06;;;;;;;29.90;11.00;;;;;;;-145.18;100.00;46539.28;5032469;28;20037;-80
2022/05/14 08:03:32;;;;;;;26.00;11.03;;;;;;;-145.18;100.00;46537.34;5031653;28;20617;-80
2022/05/14 08:05:58;;;;;;;34.53;11.73;;;;;;;-145.18;100.00;46535.38;5032263;28;20112;-80
2022/05/14 08:08:24;;;;;;;33.17;10.27;;;;;;;-145.18;100.00;46535.38;5031893;28;20030;-80
2022/05/14 08:10:51;;;;;;;23.57;10.23;;;;;;;-145.18;100.00;46539.28;5032223;28;20041;-80
2022/05/14 08:13:18;;;;;;;33.60;10.63;;;;;;;-145.18;100.00;46539.28;5031955;28;20060;-80
2022/05/14 08:15:45;;;;;;;34.20;10.80;;;;;;;-145.18;100.00;46541.25;5032296;28;20033;-80
2022/05/14 08:18:11;;;;;;;35.47;10.30;;;;;;;-145.18;100.00;46545.16;5031610;28;20125;-79
2022/05/14 08:20:39;;;;;;;28.27;10.57;;;;;;;-145.18;100.00;46541.25;5032302;28;20408;-79
2022/05/14 08:25:52;;;;;;;27.57;10.17;;;;;;;-145.18;100.00;46543.19;5031662;28;20049;-79
2022/05/14 08:28:19;;;;;;;24.30;10.00;;;;;;;-145.18;100.00;46549.06;5031506;28;20037;-79
2022/05/14 08:30:44;;;;;;;27.93;8.97;;;;;;;-145.18;100.00;46551.00;5032221;28;20619;-79
2022/05/14 08:33:11;;;;;;;29.27;9.50;;;;;;;-145.18;100.00;46543.19;5029405;28;20035;-79
2022/05/14 08:35:37;;;;;;;23.30;8.77;;;;;;;-145.18;100.00;46549.06;5031039;28;20029;-79
2022/05/14 08:38:03;;;;;;;28.00;9.60;;;;;;;-145.18;100.00;46545.16;5031431;28;20021;-80
2022/05/14 08:40:37;;;;;;;27.17;8.70;;;;;;;-145.18;100.00;46549.06;5032344;28;20427;-79
2022/05/14 08:43:08;;;;;;;20.80;7.90;;;;;;;-145.18;100.00;46562.72;5031417;28;20035;-78
2022/05/14 08:45:37;;;;;;;24.17;7.40;;;;;;;-145.18;100.00;46586.16;5014169;28;20056;-79
2022/05/14 08:48:13;;;;;;;26.87;8.50;;;;;;;-145.18;100.00;46552.97;5030847;28;20044;-78
2022/05/14 08:50:39;;;;;;;29.97;8.90;;;;;;;-145.18;100.00;46582.25;5031829;28;20552;-78
2022/05/14 08:53:09;;;;;;;23.60;7.63;;;;;;;-145.18;100.00;46570.53;5031226;28;20029;-79
2022/05/14 08:55:51;;;;;;;26.57;8.23;;;;;;;-145.18;100.00;46586.16;5031715;28;20087;-79
2022/05/14 08:58:45;;;;;;;30.10;8.57;;;;;;;-145.18;100.00;46617.41;5031103;28;20372;-79
2022/05/14 09:01:16;;;;;;;30.17;9.43;;;;;;;-145.18;100.00;47172.19;5031252;28;20022;-77
2022/05/14 09:03:44;;;;;;;26.63;8.90;;;;;;;-145.18;100.00;47176.09;5030949;28;20045;-78
2022/05/14 09:06:09;;;;;;;28.67;8.70;;;;;;;-145.18;100.00;47191.75;5031396;28;20440;-77
2022/05/14 09:08:35;;;;;;;20.23;8.87;;;;;;;-145.18;100.00;47180.03;5030946;28;20029;-78
2022/05/14 09:11:11;;;;;;;21.03;7.30;;;;;;;-145.18;100.00;47209.31;5031379;28;20029;-76
2022/05/14 09:13:46;;;;;;;23.30;6.80;;;;;;;-145.18;100.00;47183.94;5013051;28;20025;-76
2022/05/14 09:16:34;;;;;;;29.08;8.20;;;;;;;-145.18;100.00;47230.81;5031061;28;20068;-76
2022/05/14 09:18:59;;;;;;;19.47;7.03;;;;;;;-145.18;100.00;47199.56;5030732;28;20084;-78
2022/05/14 09:21:36;;;;;;;23.77;7.93;;;;;;;-145.18;100.00;47156.56;4993099;28;20034;-76
2022/05/14 09:24:17;;;;;;;23.23;6.63;;;;;;;-145.18;100.00;47107.72;4993708;28;20034;-75
2022/05/14 09:26:43;;;;;;;20.83;6.73;;;;;;;-145.18;100.00;47090.16;4993878;28;20057;-75
2022/05/14 09:29:22;;;;;;;21.97;6.87;;;;;;;-145.18;100.00;47055.00;4993437;28;20029;-75
2022/05/14 09:31:55;;;;;;;19.90;6.50;;;;;;;-145.18;100.00;47062.81;4993751;28;20040;-75
2022/05/14 09:34:22;;;;;;;27.73;6.60;;;;;;;-145.18;100.00;47049.13;5011034;28;20034;-75
2022/05/14 09:36:49;;;;;;;21.80;5.77;;;;;;;-145.18;100.00;47047.19;5011315;28;20375;-75
2022/05/14 09:39:21;;;;;;;20.63;5.87;;;;;;;-145.18;100.00;47031.53;5010695;28;20034;-75
2022/05/14 09:41:49;;;;;;;20.07;5.20;;;;;;;-145.18;100.00;47039.34;5011381;28;20032;-75
2022/05/14 09:44:24;;;;;;;15.23;4.77;;;;;;;-145.18;100.00;47043.28;5010864;28;20036;-75
2022/05/14 09:46:50;;;;;;;13.75;5.45;;;;;;;-145.18;100.00;47055.00;5010881;28;20080;-75
2022/05/14 09:49:25;;;;;;;18.30;5.57;;;;;;;-145.18;100.00;47043.28;5010830;28;20394;-76
2022/05/14 09:51:56;;;;;;;18.93;5.00;;;;;;;-145.18;100.00;47045.22;5010943;28;20490;-75
2022/05/14 09:54:43;;;;;;;17.80;4.33;;;;;;;-145.18;100.00;47062.81;5010704;28;20030;-75
2022/05/14 09:57:23;;;;;;;12.97;4.20;;;;;;;-145.18;100.00;47013.97;5010729;28;20057;-75
2022/05/14 10:00:05;;;;;;;19.10;4.60;;;;;;;-145.18;100.00;47047.19;5010696;28;20030;-74
2022/05/14 10:02:40;;;;;;;19.60;6.27;;;;;;;-145.18;100.00;47043.28;5010869;28;20026;-75
2022/05/14 10:05:15;;;;;;;17.73;5.85;;;;;;;-145.18;100.00;47092.09;5020507;28;20060;-74
2022/05/14 10:07:50;;;;;;;17.80;6.03;;;;;;;-145.18;100.00;47121.41;5030788;28;20064;-74
2022/05/14 10:10:37;;;;;;;17.67;4.68;;;;;;;-145.18;100.00;47113.59;5029884;28;20576;-74
2022/05/14 10:13:10;;;;;;;18.23;5.17;;;;;;;-145.18;100.00;47111.66;5030362;28;20121;-74
2022/05/14 10:15:43;;;;;;;23.10;6.23;;;;;;;-145.18;100.00;47039.34;5029859;28;20029;-74
2022/05/14 10:18:33;;;;;;;19.17;4.97;;;;;;;-145.18;100.00;47017.88;5030391;28;20033;-74
2022/05/14 10:21:07;;;;;;;13.87;4.80;;;;;;;-145.18;100.00;47013.97;5029425;28;20385;-73
2022/05/14 10:26:53;;;;;;;19.80;6.70;;;;;;;-145.18;100.00;47013.97;5049831;28;20043;-73
2022/05/14 10:29:47;;;;;;;17.77;5.07;;;;;;;-145.18;100.00;47023.72;5029610;28;20068;-76
2022/05/14 10:32:19;;;;;;;17.30;5.60;;;;;;;-145.18;100.00;47035.44;5029851;28;20095;-73
2022/05/14 10:35:08;;;;;;;21.53;5.63;;;;;;;-145.18;100.00;47068.66;5011937;28;20033;-73
2022/05/14 10:37:48;;;;;;;15.87;5.27;;;;;;;-145.18;100.00;47064.75;5030122;28;20772;-73
2022/05/14 10:40:19;;;;;;;16.73;4.17;;;;;;;-145.18;100.00;47033.50;5029439;28;20175;-73
2022/05/14 10:42:53;;;;;;;19.53;4.37;;;;;;;-145.18;100.00;47017.88;5029991;28;20638;-73
2022/05/14 10:45:30;;;;;;;14.77;4.70;;;;;;;-145.18;100.00;47017.88;5029597;28;20032;-73
2022/05/14 10:48:13;;;;;;;15.63;4.07;;;;;;;-145.18;100.00;46992.47;5029731;28;20152;-74
2022/05/14 10:50:38;;;;;;;13.27;4.63;;;;;;;-145.18;100.00;47000.28;5029034;28;20109;-73
2022/05/14 10:53:08;;;;;;;18.33;4.37;;;;;;;-145.18;100.00;46969.03;5028467;28;20132;-73
2022/05/14 10:55:45;;;;;;;14.63;3.90;;;;;;;-145.18;100.00;46965.13;5028671;28;20037;-73
2022/05/14 10:58:21;;;;;;;16.90;4.47;;;;;;;-145.18;100.00;47015.91;5026401;28;20112;-73
2022/05/14 11:00:47;;;;;;;;;;;;;;;-145.18;100.00;47041.31;5026483;28;20033;-74
2022/05/14 11:03:27;;;;;;;;;;;;;;;-145.18;100.00;47068.66;5029275;28;20310;-73
2022/05/14 11:06:02;;;;;;;16.30;3.53;;;;;;;-145.18;100.00;47088.19;5029444;28;19944;-73
2022/05/14 11:08:37;;;;;;;15.10;4.30;;;;;;;-145.18;100.00;47012.00;5029155;28;20037;-73
2022/05/14 11:11:04;;;;;;;16.63;4.63;;;;;;;-145.18;100.00;46971.00;5029297;28;20425;-73
2022/05/14 11:13:30;;;;;;;19.00;4.60;;;;;;;-145.18;100.00;46941.69;5027964;28;20116;-74
2022/05/14 11:16:09;;;;;;;17.37;4.33;;;;;;;-145.18;100.00;46974.91;5028891;28;20463;-73
2022/05/14 11:18:49;;;;;;;13.23;4.50;;;;;;;-145.18;100.00;47021.78;5028374;28;20041;-74
2022/05/14 11:21:15;;;;;;;17.00;3.97;;;;;;;-145.18;100.00;47035.44;5011525;28;20021;-74
2022/05/14 11:23:56;;;;;;;13.60;4.00;;;;;;;-145.18;100.00;47047.19;5029024;28;20026;-73
2022/05/14 11:26:23;;;;;;;12.53;4.57;;;;;;;-145.18;100.00;46998.34;5029480;28;20032;-74